Time;durP1;ratioP1;P1;durP2;ratioP2;P2;SDS_P1;SDS_P2;PMS_P1;PMS_P2;Temp;Humidity;BMP_temperature;BMP_pressure;BME280_temperature;BME280_humidity;BME280_pressure;Samples;Min_cycle;Max_cycle;Signal;HPM_P1;HPM_P2
2021/10/27 00:00:06;;;;;;;3.88;2.90;;;;;;;;;;5103466;28;20040;-69
2021/10/27 00:02:31;;;;;;;5.00;3.58;;;;;;;;;;5103968;28;20400;-69
2021/10/27 00:04:57;;;;;;;4.90;3.83;;;;;;;;;;5104242;28;20035;-69
2021/10/27 00:07:23;;;;;;;3.30;2.97;;;;;;;;;;5106763;28;20111;-69
2021/10/27 00:09:50;;;;;;;9.93;3.00;;;;;;;;;;5104985;28;20115;-69
2021/10/27 00:12:15;;;;;;;2.95;2.63;;;;;;;;;;5106976;28;20076;-69
2021/10/27 00:14:41;;;;;;;5.57;3.53;;;;;;;;;;5106215;28;20895;-69
2021/10/27 00:17:07;;;;;;;3.97;2.85;;;;;;;;;;5103452;28;20111;-68
2021/10/27 00:19:32;;;;;;;4.03;3.42;;;;;;;;;;5103812;28;20032;-68
2021/10/27 00:21:58;;;;;;;4.00;3.42;;;;;;;;;;5103035;28;20058;-68
2021/10/27 00:24:23;;;;;;;4.57;3.30;;;;;;;;;;5093480;28;20036;-67
2021/10/27 00:26:49;;;;;;;4.20;3.53;;;;;;;;;;5106464;28;20038;-68
2021/10/27 00:29:14;;;;;;;4.13;3.35;;;;;;;;;;5092121;28;20051;-66
2021/10/27 00:31:39;;;;;;;4.47;3.47;;;;;;;;;;5104145;28;20111;-66
2021/10/27 00:34:05;;;;;;;3.72;2.78;;;;;;;;;;5105459;28;20038;-68
2021/10/27 00:36:30;;;;;;;3.42;3.10;;;;;;;;;;5101530;28;20142;-67
2021/10/27 00:38:55;;;;;;;4.28;3.38;;;;;;;;;;5105226;28;20444;-68
2021/10/27 00:41:21;;;;;;;3.92;3.45;;;;;;;;;;5089155;28;20120;-68
2021/10/27 00:43:46;;;;;;;5.78;3.40;;;;;;;;;;5105041;28;20039;-68
2021/10/27 00:46:21;;;;;;;3.90;3.03;;;;;;;;;;5092686;28;20031;-68
2021/10/27 00:48:47;;;;;;;6.07;3.17;;;;;;;;;;5106541;28;20028;-68
2021/10/27 00:51:13;;;;;;;3.95;3.35;;;;;;;;;;5106406;28;20137;-68
2021/10/27 00:53:39;;;;;;;3.45;3.05;;;;;;;;;;5106321;28;20094;-68
2021/10/27 00:56:05;;;;;;;7.13;4.15;;;;;;;;;;5102324;28;20427;-69
2021/10/27 00:58:31;;;;;;;3.50;3.20;;;;;;;;;;5105295;28;20120;-69
2021/10/27 01:00:57;;;;;;;3.80;3.15;;;;;;;;;;5104198;28;20046;-69
2021/10/27 01:03:22;;;;;;;4.22;3.33;;;;;;;;;;5107051;28;20373;-68
2021/10/27 01:05:48;;;;;;;4.35;2.97;;;;;;;;;;5106529;28;20635;-68
2021/10/27 01:08:13;;;;;;;4.38;3.55;;;;;;;;;;5107393;28;20369;-68
2021/10/27 01:10:40;;;;;;;6.10;3.58;;;;;;;;;;5103498;28;20095;-67
2021/10/27 01:13:06;;;;;;;5.65;4.20;;;;;;;;;;5105509;28;20114;-68
2021/10/27 01:15:31;;;;;;;4.82;3.70;;;;;;;;;;5103110;28;20531;-68
2021/10/27 01:17:57;;;;;;;2.88;2.22;;;;;;;;;;5088393;28;20429;-68
2021/10/27 01:20:22;;;;;;;3.83;3.42;;;;;;;;;;5103551;28;20081;-67
2021/10/27 01:22:48;;;;;;;3.70;3.13;;;;;;;;;;5106032;28;20034;-68
2021/10/27 01:25:13;;;;;;;3.22;2.88;;;;;;;;;;5107319;28;20467;-68
2021/10/27 01:27:42;;;;;;;7.10;3.85;;;;;;;;;;5107674;28;20038;-68
2021/10/27 01:30:16;;;;;;;4.05;3.65;;;;;;;;;;5104110;28;20036;-68
2021/10/27 01:32:42;;;;;;;3.95;3.47;;;;;;;;;;5102492;28;20032;-68
2021/10/27 01:35:08;;;;;;;3.50;3.13;;;;;;;;;;5105049;28;20043;-68
2021/10/27 01:37:35;;;;;;;3.03;2.70;;;;;;;;;;5103167;28;20076;-68
2021/10/27 01:40:00;;;;;;;4.88;3.55;;;;;;;;;;5101773;28;20481;-68
2021/10/27 01:42:26;;;;;;;4.05;3.13;;;;;;;;;;5105875;28;20085;-68
2021/10/27 01:44:51;;;;;;;4.68;3.33;;;;;;;;;;5088675;28;20122;-68
2021/10/27 01:47:17;;;;;;;4.30;3.45;;;;;;;;;;5102211;28;20410;-68
2021/10/27 01:49:42;;;;;;;3.88;3.22;;;;;;;;;;5103291;28;20070;-68
2021/10/27 01:52:08;;;;;;;7.47;3.55;;;;;;;;;;5104424;28;20044;-68
2021/10/27 01:54:34;;;;;;;3.85;3.45;;;;;;;;;;5103502;28;20028;-68
2021/10/27 01:57:00;;;;;;;3.78;3.38;;;;;;;;;;5101550;28;20521;-67
2021/10/27 01:59:26;;;;;;;4.65;3.78;;;;;;;;;;5100696;28;20141;-67
2021/10/27 02:01:51;;;;;;;4.15;3.25;;;;;;;;;;5100074;28;20338;-67
2021/10/27 02:04:21;;;;;;;4.57;3.72;;;;;;;;;;5099677;28;20480;-68
2021/10/27 02:06:47;;;;;;;4.20;3.13;;;;;;;;;;5103207;28;20031;-68
2021/10/27 02:09:13;;;;;;;3.20;2.63;;;;;;;;;;5100971;28;20041;-68
2021/10/27 02:11:38;;;;;;;4.75;3.90;;;;;;;;;;5105327;28;20039;-68
2021/10/27 02:14:04;;;;;;;3.97;3.35;;;;;;;;;;5102979;28;20456;-68
2021/10/27 02:16:30;;;;;;;4.63;3.90;;;;;;;;;;5091848;28;20111;-68
2021/10/27 02:18:55;;;;;;;5.22;3.70;;;;;;;;;;5106255;28;20032;-68
2021/10/27 02:21:21;;;;;;;4.63;3.65;;;;;;;;;;5102036;28;20027;-68
2021/10/27 02:23:48;;;;;;;4.32;3.80;;;;;;;;;;5105359;28;20027;-68
2021/10/27 02:26:15;;;;;;;8.32;3.55;;;;;;;;;;5102930;28;20046;-68
2021/10/27 02:28:40;;;;;;;4.40;3.35;;;;;;;;;;5102412;28;20031;-67
2021/10/27 02:31:06;;;;;;;3.53;3.00;;;;;;;;;;5104818;28;20035;-66
2021/10/27 02:33:32;;;;;;;4.20;3.50;;;;;;;;;;5102858;28;20111;-66
2021/10/27 02:35:57;;;;;;;3.97;3.40;;;;;;;;;;5105049;28;20066;-66
2021/10/27 02:38:22;;;;;;;6.95;4.30;;;;;;;;;;5103844;28;20031;-67
2021/10/27 02:40:48;;;;;;;6.32;4.20;;;;;;;;;;5102340;28;20178;-67
2021/10/27 02:43:15;;;;;;;5.00;3.90;;;;;;;;;;5102620;28;20446;-68
2021/10/27 02:45:46;;;;;;;4.70;4.05;;;;;;;;;;5100065;28;20115;-67
2021/10/27 02:48:12;;;;;;;4.03;3.42;;;;;;;;;;5100502;28;20035;-67
2021/10/27 02:50:38;;;;;;;3.63;3.25;;;;;;;;;;5103039;28;20036;-67
2021/10/27 02:53:03;;;;;;;3.95;3.05;;;;;;;;;;5100100;28;20028;-67
2021/10/27 02:55:30;;;;;;;4.20;3.65;;;;;;;;;;5099359;28;20031;-67
2021/10/27 02:57:57;;;;;;;3.55;3.20;;;;;;;;;;5102411;28;20595;-67
2021/10/27 03:00:23;;;;;;;4.57;4.13;;;;;;;;;;5100828;28;20077;-67
2021/10/27 03:02:48;;;;;;;4.38;3.97;;;;;;;;;;5105063;28;20103;-68
2021/10/27 03:05:14;;;;;;;3.20;2.75;;;;;;;;;;5102313;28;20426;-67
2021/10/27 03:07:39;;;;;;;3.75;3.30;;;;;;;;;;5103672;28;20428;-66
2021/10/27 03:10:05;;;;;;;4.18;3.25;;;;;;;;;;5099482;28;20039;-67
2021/10/27 03:12:30;;;;;;;4.43;3.78;;;;;;;;;;5105583;28;20035;-66
2021/10/27 03:14:56;;;;;;;4.50;4.07;;;;;;;;;;5102480;28;20034;-67
2021/10/27 03:17:21;;;;;;;3.97;3.30;;;;;;;;;;5106002;28;20038;-67
2021/10/27 03:19:47;;;;;;;4.90;4.03;;;;;;;;;;5104570;28;20059;-67
2021/10/27 03:22:12;;;;;;;4.93;3.88;;;;;;;;;;5103634;28;20089;-68
2021/10/27 03:24:38;;;;;;;7.32;4.35;;;;;;;;;;5103226;28;20815;-67
2021/10/27 03:27:03;;;;;;;3.25;2.80;;;;;;;;;;5101075;28;20035;-67
2021/10/27 03:29:29;;;;;;;4.18;3.75;;;;;;;;;;5103386;28;20594;-66
2021/10/27 03:31:54;;;;;;;5.93;3.55;;;;;;;;;;5100728;28;20035;-68
2021/10/27 03:34:20;;;;;;;3.28;2.80;;;;;;;;;;5102704;28;20028;-68
2021/10/27 03:36:46;;;;;;;3.97;3.33;;;;;;;;;;5103979;28;20028;-67
2021/10/27 03:39:11;;;;;;;5.20;4.47;;;;;;;;;;5099298;28;20034;-67
2021/10/27 03:41:38;;;;;;;3.60;3.28;;;;;;;;;;5100939;28;20028;-67
2021/10/27 03:44:04;;;;;;;4.18;3.78;;;;;;;;;;5102710;28;20052;-67
2021/10/27 03:46:29;;;;;;;4.43;4.03;;;;;;;;;;5101919;28;20062;-67
2021/10/27 03:48:55;;;;;;;4.40;3.03;;;;;;;;;;5103654;28;20032;-68
2021/10/27 03:51:20;;;;;;;4.38;3.00;;;;;;;;;;5102364;28;20047;-67
2021/10/27 03:53:46;;;;;;;3.80;3.28;;;;;;;;;;5105636;28;20138;-68
2021/10/27 03:56:11;;;;;;;4.18;3.50;;;;;;;;;;5084578;28;20042;-68
2021/10/27 03:58:37;;;;;;;3.60;3.20;;;;;;;;;;5103894;28;20062;-67
2021/10/27 04:01:02;;;;;;;3.17;2.88;;;;;;;;;;5106977;28;20065;-68
2021/10/27 04:03:28;;;;;;;3.50;3.20;;;;;;;;;;5108342;28;20035;-68
2021/10/27 04:05:54;;;;;;;3.67;3.38;;;;;;;;;;5104409;28;20050;-68
2021/10/27 04:08:19;;;;;;;4.07;3.38;;;;;;;;;;5109427;28;20030;-67
2021/10/27 04:10:45;;;;;;;4.07;3.67;;;;;;;;;;5103216;28;20027;-69
2021/10/27 04:13:16;;;;;;;11.98;4.28;;;;;;;;;;5107675;28;20035;-67
2021/10/27 04:15:41;;;;;;;3.58;3.10;;;;;;;;;;5101445;28;20456;-68
2021/10/27 04:18:07;;;;;;;4.55;3.47;;;;;;;;;;5101723;28;20110;-68
2021/10/27 04:20:33;;;;;;;4.53;4.05;;;;;;;;;;5091590;28;20569;-68
2021/10/27 04:22:58;;;;;;;4.05;3.65;;;;;;;;;;5103923;28;20040;-68
2021/10/27 04:25:25;;;;;;;7.05;3.35;;;;;;;;;;5104705;27;20118;-68
2021/10/27 04:27:50;;;;;;;3.80;3.35;;;;;;;;;;5103891;28;20035;-67
2021/10/27 04:30:16;;;;;;;5.05;4.07;;;;;;;;;;5104519;28;20064;-67
2021/10/27 04:32:41;;;;;;;5.40;3.15;;;;;;;;;;5104072;28;20035;-67
2021/10/27 04:35:08;;;;;;;3.83;3.40;;;;;;;;;;5092200;28;20032;-67
2021/10/27 04:37:39;;;;;;;4.13;2.95;;;;;;;;;;5102040;28;20080;-67
2021/10/27 04:40:10;;;;;;;3.88;3.33;;;;;;;;;;5103774;28;20028;-68
2021/10/27 04:42:36;;;;;;;;;;;;;;;;;;5101715;28;20050;-67
2021/10/27 04:45:03;;;;;;;3.95;3.42;;;;;;;;;;5102809;28;19907;-68
2021/10/27 04:47:29;;;;;;;4.18;3.78;;;;;;;;;;5101737;28;20039;-68
2021/10/27 04:49:54;;;;;;;6.65;4.00;;;;;;;;;;5105426;28;20032;-68
2021/10/27 04:52:20;;;;;;;7.95;5.15;;;;;;;;;;5103990;28;20406;-68
2021/10/27 04:54:45;;;;;;;4.82;4.25;;;;;;;;;;5106034;28;20067;-68
2021/10/27 04:57:10;;;;;;;4.72;3.83;;;;;;;;;;5107902;28;20382;-68
2021/10/27 04:59:40;;;;;;;4.85;4.00;;;;;;;;;;5108343;28;20124;-68
2021/10/27 05:02:06;;;;;;;8.38;3.90;;;;;;;;;;5104560;28;20031;-68
2021/10/27 05:04:32;;;;;;;4.35;3.67;;;;;;;;;;5105849;28;20035;-67
2021/10/27 05:06:57;;;;;;;5.35;4.47;;;;;;;;;;5104492;28;20408;-68
2021/10/27 05:09:23;;;;;;;4.38;3.60;;;;;;;;;;5104130;28;20158;-68
2021/10/27 05:11:49;;;;;;;6.90;4.25;;;;;;;;;;5102646;28;20706;-66
2021/10/27 05:14:14;;;;;;;4.10;3.53;;;;;;;;;;5102928;28;20132;-67
2021/10/27 05:16:40;;;;;;;4.72;3.53;;;;;;;;;;5084565;28;20045;-68
2021/10/27 05:19:05;;;;;;;3.40;3.05;;;;;;;;;;5104426;28;20358;-68
2021/10/27 05:21:30;;;;;;;3.35;2.72;;;;;;;;;;5103009;28;20411;-68
2021/10/27 05:23:56;;;;;;;3.78;3.38;;;;;;;;;;5105231;28;20364;-68
2021/10/27 05:26:23;;;;;;;7.40;3.78;;;;;;;;;;5106289;28;20059;-67
2021/10/27 05:28:49;;;;;;;9.77;3.42;;;;;;;;;;5105625;28;20039;-67
2021/10/27 05:31:14;;;;;;;4.70;3.40;;;;;;;;;;5101486;28;20039;-68
2021/10/27 05:33:39;;;;;;;4.15;3.13;;;;;;;;;;5102564;27;20031;-68
2021/10/27 05:36:05;;;;;;;4.38;3.65;;;;;;;;;;5103969;28;20024;-69
2021/10/27 05:38:30;;;;;;;3.55;3.25;;;;;;;;;;5101784;28;20027;-67
2021/10/27 05:40:56;;;;;;;3.58;2.92;;;;;;;;;;5103725;28;20055;-67
2021/10/27 05:43:21;;;;;;;4.10;3.53;;;;;;;;;;5101343;28;20524;-68
2021/10/27 05:45:47;;;;;;;4.47;3.65;;;;;;;;;;5101715;28;20028;-68
2021/10/27 05:48:14;;;;;;;5.10;3.90;;;;;;;;;;5102707;28;20368;-69
2021/10/27 05:50:46;;;;;;;4.30;3.30;;;;;;;;;;5103788;28;20032;-68
2021/10/27 05:55:56;;;;;;;3.38;2.97;;;;;;;;;;5105049;28;20115;-68
2021/10/27 05:58:21;;;;;;;4.35;3.50;;;;;;;;;;5105373;27;20107;-68
2021/10/27 06:00:47;;;;;;;4.07;3.38;;;;;;;;;;5103076;28;20038;-69
2021/10/27 06:03:13;;;;;;;4.20;3.80;;;;;;;;;;5104573;28;20031;-68
2021/10/27 06:05:39;;;;;;;4.50;3.88;;;;;;;;;;5080515;28;20494;-69
2021/10/27 06:08:05;;;;;;;3.67;3.10;;;;;;;;;;5102620;28;20047;-69
2021/10/27 06:10:31;;;;;;;4.43;4.03;;;;;;;;;;5082248;28;20073;-70
2021/10/27 06:13:04;;;;;;;4.28;3.88;;;;;;;;;;5101743;28;20588;-69
2021/10/27 06:15:29;;;;;;;3.92;3.53;;;;;;;;;;5103042;28;20116;-69
2021/10/27 06:17:55;;;;;;;4.28;3.08;;;;;;;;;;5090330;28;20385;-69
2021/10/27 06:20:20;;;;;;;4.15;3.72;;;;;;;;;;5104793;28;20517;-71
2021/10/27 06:22:46;;;;;;;3.45;3.15;;;;;;;;;;5102227;28;20031;-70
2021/10/27 06:25:12;;;;;;;3.95;3.50;;;;;;;;;;5102264;28;20101;-71
2021/10/27 06:27:41;;;;;;;3.25;2.92;;;;;;;;;;5090529;28;20062;-71
2021/10/27 06:30:26;;;;;;;4.75;3.70;;;;;;;;;;5104913;28;20023;-70
2021/10/27 06:33:16;;;;;;;3.80;3.08;;;;;;;;;;5102881;28;20353;-70
2021/10/27 06:35:43;;;;;;;3.58;3.22;;;;;;;;;;5102940;28;20032;-70
2021/10/27 06:48:39;;;;;;;5.22;4.22;;;;;;;;;;5099049;28;20027;-70
2021/10/27 06:51:05;;;;;;;5.65;5.05;;;;;;;;;;5100982;28;20027;-71
2021/10/27 06:53:31;;;;;;;6.70;4.05;;;;;;;;;;5101134;28;20433;-70
2021/10/27 06:55:57;;;;;;;4.53;3.50;;;;;;;;;;5103480;28;20517;-70
2021/10/27 06:58:23;;;;;;;5.63;4.03;;;;;;;;;;5102845;28;20043;-71
2021/10/27 07:00:52;;;;;;;6.15;4.45;;;;;;;;;;5100767;28;20028;-71
2021/10/27 07:16:35;;;;;;;3.53;3.15;;;;;;;;;;5099959;28;20067;-69
2021/10/27 07:19:01;;;;;;;3.53;3.10;;;;;;;;;;5105056;28;20510;-69
2021/10/27 07:21:26;;;;;;;3.80;3.17;;;;;;;;;;5100701;28;20032;-70
2021/10/27 07:23:52;;;;;;;4.20;3.80;;;;;;;;;;5102531;28;20038;-70
2021/10/27 07:26:18;;;;;;;4.35;3.55;;;;;;;;;;5103663;28;20054;-69
2021/10/27 07:28:47;;;;;;;5.63;4.13;;;;;;;;;;5101343;27;20039;-70
2021/10/27 07:31:15;;;;;;;3.75;3.35;;;;;;;;;;5103318;27;20469;-69
2021/10/27 07:33:41;;;;;;;3.97;3.33;;;;;;;;;;5104892;27;20118;-70
2021/10/27 07:41:30;;;;;;;4.00;3.60;;;;;;;;;;5104497;28;20481;-70
2021/10/27 07:43:57;;;;;;;3.55;3.05;;;;;;;;;;5107275;27;20074;-70
2021/10/27 07:46:22;;;;;;;4.28;3.60;;;;;;;;;;5104010;27;20031;-70
2021/10/27 07:48:48;;;;;;;6.25;4.40;;;;;;;;;;5107907;27;20372;-70
2021/10/27 07:51:13;;;;;;;7.45;3.80;;;;;;;;;;5106847;28;20066;-69
2021/10/27 07:53:39;;;;;;;4.45;3.72;;;;;;;;;;5104580;28;20051;-70
2021/10/27 07:56:05;;;;;;;7.93;4.80;;;;;;;;;;5102933;27;20024;-69
2021/10/27 07:58:30;;;;;;;4.60;3.47;;;;;;;;;;5104279;27;20051;-69
2021/10/27 08:00:57;;;;;;;5.35;4.20;;;;;;;;;;5103155;28;20059;-70
2021/10/27 08:03:23;;;;;;;4.63;3.95;;;;;;;;;;5089204;28;20513;-69
2021/10/27 08:05:49;;;;;;;3.70;3.40;;;;;;;;;;5106179;27;20107;-70
2021/10/27 08:08:19;;;;;;;4.05;3.47;;;;;;;;;;5102802;27;20024;-70
2021/10/27 08:10:44;;;;;;;6.07;3.50;;;;;;;;;;5106748;28;20055;-70
2021/10/27 08:13:10;;;;;;;4.50;3.53;;;;;;;;;;5106727;27;20059;-70
2021/10/27 08:15:37;;;;;;;4.57;3.78;;;;;;;;;;5102412;28;20047;-70
2021/10/27 08:18:08;;;;;;;4.35;3.53;;;;;;;;;;5104319;27;20038;-69
2021/10/27 08:20:34;;;;;;;4.95;3.88;;;;;;;;;;5103217;27;20491;-69
2021/10/27 08:23:02;;;;;;;4.35;3.30;;;;;;;;;;5101531;28;20107;-69
2021/10/27 08:25:31;;;;;;;4.88;4.13;;;;;;;;;;5097067;28;20036;-69
2021/10/27 08:28:04;;;;;;;3.92;3.47;;;;;;;;;;5102600;28;20092;-69
2021/10/27 08:30:43;;;;;;;4.05;3.20;;;;;;;;;;5101742;28;20023;-70
2021/10/27 08:33:19;;;;;;;4.38;3.90;;;;;;;;;;5103319;28;20098;-70
2021/10/27 08:35:45;;;;;;;7.18;4.38;;;;;;;;;;5102951;28;20042;-70
2021/10/27 08:38:10;;;;;;;4.15;3.00;;;;;;;;;;5102586;28;20032;-70
2021/10/27 08:40:36;;;;;;;3.25;2.92;;;;;;;;;;5104192;28;20111;-69
2021/10/27 08:43:02;;;;;;;3.88;3.20;;;;;;;;;;5105322;28;20023;-70
2021/10/27 08:45:28;;;;;;;3.63;3.25;;;;;;;;;;5102918;28;20040;-69
2021/10/27 08:47:54;;;;;;;4.10;3.20;;;;;;;;;;5102914;28;20037;-69
2021/10/27 08:50:22;;;;;;;4.72;3.42;;;;;;;;;;5102567;28;20040;-69
2021/10/27 08:52:49;;;;;;;3.45;3.15;;;;;;;;;;5102791;28;20244;-69
2021/10/27 08:55:16;;;;;;;3.28;2.97;;;;;;;;;;5100405;28;20035;-69
2021/10/27 08:57:49;;;;;;;3.85;3.42;;;;;;;;;;5101668;28;20036;-70
2021/10/27 09:03:02;;;;;;;4.75;3.05;;;;;;;;;;5097560;28;20031;-70
2021/10/27 09:17:17;;;;;;;3.30;2.95;;;;;;;;;;5101095;28;20068;-70
2021/10/27 09:33:52;;;;;;;4.88;3.58;;;;;;;;;;5100859;28;20110;-70
2021/10/27 09:34:08;;;;;;;4.85;3.55;;;;;;;;;;5099941;28;20048;-70
2021/10/27 10:05:13;;;;;;;3.92;3.20;;;;;;;;;;5098804;28;20036;-69
2021/10/27 10:07:40;;;;;;;5.18;3.30;;;;;;;;;;5101331;28;20035;-70
2021/10/27 10:10:08;;;;;;;8.02;3.95;;;;;;;;;;5101562;28;20040;-70
2021/10/27 10:12:42;;;;;;;4.38;3.97;;;;;;;;;;5100406;28;20125;-70
2021/10/27 10:15:09;;;;;;;5.15;4.65;;;;;;;;;;5101769;28;20032;-70
2021/10/27 10:17:38;;;;;;;3.50;3.05;;;;;;;;;;5101976;28;20034;-70
2021/10/27 10:20:06;;;;;;;4.65;3.63;;;;;;;;;;5101266;27;20512;-70
2021/10/27 10:22:42;;;;;;;13.15;3.50;;;;;;;;;;5102074;28;20113;-70
2021/10/27 10:25:20;;;;;;;15.52;4.15;;;;;;;;;;5103304;28;20050;-70
2021/10/27 10:28:10;;;;;;;6.28;3.50;;;;;;;;;;5097129;28;20027;-70
2021/10/27 10:30:41;;;;;;;4.53;3.72;;;;;;;;;;5101169;28;20032;-62
2021/10/27 10:33:09;;;;;;;4.60;4.05;;;;;;;;;;5103346;28;20119;-62
2021/10/27 10:35:50;;;;;;;4.38;3.50;;;;;;;;;;5102149;28;20369;-70
2021/10/27 10:38:38;;;;;;;4.47;3.70;;;;;;;;;;5101519;28;20057;-64
2021/10/27 10:43:53;;;;;;;3.95;3.22;;;;;;;;;;5099216;28;20448;-62
2021/10/27 11:00:56;;;;;;;3.28;2.97;;;;;;;;;;5101456;28;20477;-70
2021/10/27 11:42:10;;;;;;;4.05;3.58;;;;;;;;;;5101734;28;20030;-70
2021/10/27 11:44:58;;;;;;;3.97;3.13;;;;;;;;;;5102597;28;20596;-70
2021/10/27 11:47:42;;;;;;;4.95;3.80;;;;;;;;;;5103830;27;20035;-69
2021/10/27 11:50:11;;;;;;;4.10;3.28;;;;;;;;;;5102749;28;20054;-69
2021/10/27 11:52:44;;;;;;;3.40;2.80;;;;;;;;;;5103821;28;20115;-69
2021/10/27 11:55:14;;;;;;;4.15;3.05;;;;;;;;;;5104965;28;20039;-69
2021/10/27 11:57:41;;;;;;;4.83;2.87;;;;;;;;;;5102888;27;20139;-69
2021/10/27 12:00:36;;;;;;;2.85;2.35;;;;;;;;;;5102961;28;20610;-69
2021/10/27 12:05:47;;;;;;;;;;;;;;;;;;5100423;28;20066;-69
2021/10/27 12:19:18;;;;;;;2.75;2.20;;;;;;;;;;5102828;28;20035;-69
2021/10/27 12:21:53;;;;;;;3.80;3.05;;;;;;;;;;5103173;28;20027;-70
2021/10/27 12:24:23;;;;;;;3.05;2.58;;;;;;;;;;5103740;27;20028;-69
2021/10/27 12:26:59;;;;;;;3.25;2.65;;;;;;;;;;5105284;28;20031;-70
2021/10/27 12:29:26;;;;;;;4.18;3.20;;;;;;;;;;5098101;28;20046;-70
2021/10/27 12:32:08;;;;;;;5.90;3.72;;;;;;;;;;5085672;28;20065;-70
2021/10/27 12:34:54;;;;;;;4.78;3.42;;;;;;;;;;5104436;28;20115;-70
2021/10/27 12:37:45;;;;;;;5.70;2.85;;;;;;;;;;5105021;28;20027;-69
2021/10/27 12:40:14;;;;;;;3.78;2.72;;;;;;;;;;5099502;28;20104;-70
2021/10/27 12:42:41;;;;;;;3.20;2.75;;;;;;;;;;5089116;28;20065;-69
2021/10/27 12:45:07;;;;;;;4.05;3.42;;;;;;;;;;5088489;28;20376;-70
2021/10/27 12:47:39;;;;;;;3.47;2.75;;;;;;;;;;5099660;28;20036;-70
2021/10/27 12:50:18;;;;;;;3.95;3.40;;;;;;;;;;5098658;28;20046;-69
2021/10/27 12:52:52;;;;;;;3.20;2.78;;;;;;;;;;5097003;28;20657;-69
2021/10/27 12:55:20;;;;;;;2.70;2.10;;;;;;;;;;5103553;28;20460;-69
2021/10/27 12:57:51;;;;;;;2.88;2.40;;;;;;;;;;5102149;28;20512;-62
2021/10/27 13:00:27;;;;;;;3.22;2.83;;;;;;;;;;5100755;28;20039;-63
2021/10/27 13:03:17;;;;;;;4.43;3.38;;;;;;;;;;5100638;28;20028;-63
2021/10/27 13:05:47;;;;;;;3.23;2.50;;;;;;;;;;5102096;28;20031;-63
2021/10/27 13:11:25;;;;;;;3.20;2.55;;;;;;;;;;5102783;28;19915;-63
2021/10/27 13:14:01;;;;;;;3.38;2.92;;;;;;;;;;5099014;28;20051;-63
2021/10/27 13:16:57;;;;;;;3.67;2.88;;;;;;;;;;5098309;28;20529;-63
2021/10/27 13:30:45;;;;;;;7.88;3.47;;;;;;;;;;5101729;28;20032;-61
2021/10/27 13:33:08;;;;;;;3.20;2.80;;;;;;;;;;5097520;28;20036;-61
2021/10/27 13:35:34;;;;;;;3.63;2.65;;;;;;;;;;5102951;28;20096;-62
2021/10/27 13:38:00;;;;;;;4.22;3.20;;;;;;;;;;5098858;28;20039;-62
2021/10/27 13:40:27;;;;;;;3.00;2.42;;;;;;;;;;5100218;28;20059;-62
2021/10/27 13:45:34;;;;;;;3.33;2.95;;;;;;;;;;5102431;28;20519;-62
2021/10/27 14:09:16;;;;;;;3.10;2.53;;;;;;;;;;5102367;28;20050;-59
2021/10/27 14:17:49;;;;;;;3.22;2.42;;;;;;;;;;5101246;28;20024;-62
2021/10/27 14:23:18;;;;;;;3.83;2.58;;;;;;;;;;5103193;28;20020;-63
2021/10/27 14:47:27;;;;;;;2.60;1.90;;;;;;;;;;5082429;28;20101;-61
2021/10/27 15:19:34;;;;;;;2.90;2.10;;;;;;;;;;5096210;28;20693;-62
2021/10/27 15:20:54;;;;;;;2.80;2.22;;;;;;;;;;5100469;28;20055;-62
2021/10/27 15:28:50;;;;;;;2.85;2.10;;;;;;;;;;5099328;28;20635;-62
2021/10/27 15:42:26;;;;;;;3.20;2.28;;;;;;;;;;5104591;28;20020;-62
2021/10/27 15:45:20;;;;;;;2.60;2.00;;;;;;;;;;5107157;28;20038;-62
2021/10/27 15:50:40;;;;;;;2.60;1.90;;;;;;;;;;5105008;28;20036;-62
2021/10/27 15:53:07;;;;;;;2.90;2.10;;;;;;;;;;5105485;28;20031;-62
2021/10/27 15:55:34;;;;;;;3.10;2.22;;;;;;;;;;5102865;28;20031;-62
2021/10/27 15:58:00;;;;;;;2.90;2.40;;;;;;;;;;5102588;28;20040;-62
2021/10/27 16:00:25;;;;;;;2.90;2.05;;;;;;;;;;5104947;28;20526;-62
2021/10/27 16:02:51;;;;;;;2.80;2.15;;;;;;;;;;5088834;28;20028;-61
2021/10/27 16:05:16;;;;;;;2.80;2.00;;;;;;;;;;5102112;28;20341;-62
2021/10/27 16:07:44;;;;;;;2.83;2.35;;;;;;;;;;5104314;28;20115;-62
2021/10/27 16:10:15;;;;;;;2.88;2.40;;;;;;;;;;5087468;28;20023;-62
2021/10/27 16:12:40;;;;;;;4.00;2.38;;;;;;;;;;5103636;28;20023;-61
2021/10/27 16:15:12;;;;;;;2.60;2.17;;;;;;;;;;5101602;28;20063;-62
2021/10/27 16:17:41;;;;;;;3.13;2.17;;;;;;;;;;5100774;28;20414;-62
2021/10/27 16:20:08;;;;;;;2.83;2.22;;;;;;;;;;5105868;28;20034;-61
2021/10/27 16:22:34;;;;;;;3.45;2.70;;;;;;;;;;5102695;28;20039;-62
2021/10/27 16:24:59;;;;;;;2.53;1.92;;;;;;;;;;5100470;28;20373;-61
2021/10/27 16:27:25;;;;;;;2.70;2.00;;;;;;;;;;5102646;28;20027;-62
2021/10/27 16:29:51;;;;;;;5.32;3.75;;;;;;;;;;5104658;28;20614;-61
2021/10/27 16:32:17;;;;;;;9.00;5.47;;;;;;;;;;5099991;28;20123;-62
2021/10/27 16:34:43;;;;;;;4.05;3.40;;;;;;;;;;5101644;28;20429;-62
2021/10/27 16:37:09;;;;;;;4.30;3.58;;;;;;;;;;5101242;28;20031;-62
2021/10/27 16:39:35;;;;;;;8.10;3.35;;;;;;;;;;5100445;28;20522;-61
2021/10/27 16:42:00;;;;;;;3.05;2.60;;;;;;;;;;5101031;28;20334;-61
2021/10/27 16:44:26;;;;;;;3.50;2.85;;;;;;;;;;5087702;28;20082;-62
2021/10/27 16:46:51;;;;;;;18.60;12.18;;;;;;;;;;5101582;28;20047;-61
2021/10/27 16:49:17;;;;;;;7.82;4.35;;;;;;;;;;5098608;28;20080;-61
2021/10/27 16:51:42;;;;;;;4.63;3.65;;;;;;;;;;5102981;28;20523;-61
2021/10/27 16:54:08;;;;;;;7.78;5.78;;;;;;;;;;5104002;28;20424;-63
2021/10/27 16:56:34;;;;;;;9.57;7.20;;;;;;;;;;5103333;28;20050;-62
2021/10/27 16:59:00;;;;;;;8.57;3.35;;;;;;;;;;5100215;28;20019;-63
2021/10/27 17:01:26;;;;;;;3.35;2.60;;;;;;;;;;5102253;28;20039;-62
2021/10/27 17:03:51;;;;;;;4.32;3.08;;;;;;;;;;5101604;28;20028;-62
2021/10/27 17:06:17;;;;;;;3.10;2.58;;;;;;;;;;5103626;28;20529;-62
2021/10/27 17:08:43;;;;;;;3.78;3.08;;;;;;;;;;5100061;28;20520;-62
2021/10/27 17:11:09;;;;;;;2.63;2.00;;;;;;;;;;5103101;28;20036;-62
2021/10/27 17:13:35;;;;;;;3.67;3.08;;;;;;;;;;5098380;28;20477;-62
2021/10/27 17:16:00;;;;;;;2.90;2.28;;;;;;;;;;5098651;28;20763;-62
2021/10/27 17:18:31;;;;;;;2.50;2.08;;;;;;;;;;5104012;28;20114;-62
2021/10/27 17:20:58;;;;;;;3.10;2.38;;;;;;;;;;5102068;28;20354;-63
2021/10/27 17:23:32;;;;;;;3.42;2.30;;;;;;;;;;5082016;28;20038;-61
2021/10/27 17:25:58;;;;;;;3.35;2.38;;;;;;;;;;5102055;28;20032;-63
2021/10/27 17:28:24;;;;;;;9.65;5.85;;;;;;;;;;5101705;28;20042;-62
2021/10/27 17:30:49;;;;;;;5.07;3.50;;;;;;;;;;5100511;28;20028;-62
2021/10/27 17:33:16;;;;;;;15.30;9.57;;;;;;;;;;5100277;27;20052;-62
2021/10/27 17:35:41;;;;;;;27.73;13.63;;;;;;;;;;5101341;27;20031;-62
2021/10/27 17:38:09;;;;;;;44.20;27.48;;;;;;;;;;5098981;28;20082;-62
2021/10/27 17:40:38;;;;;;;41.72;23.20;;;;;;;;;;5100884;28;20067;-62
2021/10/27 17:43:05;;;;;;;5.75;5.00;;;;;;;;;;5101136;28;20036;-63
2021/10/27 17:45:38;;;;;;;4.38;3.60;;;;;;;;;;5099692;28;20685;-62
2021/10/27 17:48:10;;;;;;;5.10;3.20;;;;;;;;;;5102693;28;20032;-62
2021/10/27 17:58:42;;;;;;;7.03;3.92;;;;;;;;;;5101152;28;20126;-62
2021/10/27 18:01:11;;;;;;;3.45;2.75;;;;;;;;;;5104113;28;20046;-62
2021/10/27 18:03:40;;;;;;;2.90;2.20;;;;;;;;;;5100685;28;20027;-62
2021/10/27 18:06:07;;;;;;;2.50;1.85;;;;;;;;;;5103185;28;20042;-62
2021/10/27 18:08:34;;;;;;;2.67;2.17;;;;;;;;;;5097375;28;20039;-62
2021/10/27 18:11:02;;;;;;;3.55;1.98;;;;;;;;;;5093999;28;20106;-62
2021/10/27 18:13:31;;;;;;;7.10;5.18;;;;;;;;;;5083653;28;20028;-63
2021/10/27 18:16:07;;;;;;;6.00;3.53;;;;;;;;;;5100102;28;20036;-63
2021/10/27 18:18:41;;;;;;;3.85;3.00;;;;;;;;;;5100618;28;20485;-63
2021/10/27 18:21:13;;;;;;;3.05;2.35;;;;;;;;;;5097242;27;20053;-63
2021/10/27 18:23:46;;;;;;;3.50;2.92;;;;;;;;;;5085244;28;20028;-63
2021/10/27 18:26:42;;;;;;;7.68;5.10;;;;;;;;;;5100405;28;20132;-62
2021/10/27 18:39:58;;;;;;;2.78;2.20;;;;;;;;;;5099372;28;20052;-62
2021/10/27 18:42:47;;;;;;;3.88;3.20;;;;;;;;;;5099326;28;20121;-62
2021/10/27 18:45:14;;;;;;;4.38;2.22;;;;;;;;;;5097968;28;20028;-63
2021/10/27 18:47:40;;;;;;;3.03;2.50;;;;;;;;;;5096771;28;20032;-62
2021/10/27 18:50:07;;;;;;;3.38;2.90;;;;;;;;;;5098964;28;20682;-62
2021/10/27 18:55:03;;;;;;;3.38;2.55;;;;;;;;;;5100652;28;20354;-62
2021/10/27 18:57:47;;;;;;;3.03;2.33;;;;;;;;;;5097464;28;20042;-62
2021/10/27 19:00:31;;;;;;;3.15;2.85;;;;;;;;;;5101722;28;20034;-62
2021/10/27 19:03:22;;;;;;;4.13;2.80;;;;;;;;;;5096507;28;20057;-62
2021/10/27 19:16:16;;;;;;;4.25;3.40;;;;;;;;;;5104991;27;20024;-62
2021/10/27 19:18:43;;;;;;;7.80;4.32;;;;;;;;;;5101344;28;20032;-63
2021/10/27 19:21:09;;;;;;;5.35;3.42;;;;;;;;;;5105464;27;20062;-63
2021/10/27 19:23:36;;;;;;;3.92;3.53;;;;;;;;;;5104667;27;20115;-62
2021/10/27 19:29:08;;;;;;;3.80;2.58;;;;;;;;;;5071328;28;20349;-61
2021/10/27 19:32:02;;;;;;;2.75;2.17;;;;;;;;;;5101102;28;20043;-61
2021/10/27 19:34:45;;;;;;;3.38;2.47;;;;;;;;;;5102221;28;20032;-62
2021/10/27 20:07:24;;;;;;;3.47;2.63;;;;;;;;;;5102538;28;20027;-62
2021/10/27 20:18:10;;;;;;;3.90;2.33;;;;;;;;;;5100562;28;20040;-62
2021/10/27 20:23:16;;;;;;;3.15;2.45;;;;;;;;;;5101161;28;20031;-62
2021/10/27 20:28:56;;;;;;;3.97;2.85;;;;;;;;;;5090156;28;20434;-62
2021/10/27 20:50:46;;;;;;;3.08;2.55;;;;;;;;;;5102171;28;20074;-62
2021/10/27 20:53:19;;;;;;;8.82;2.92;;;;;;;;;;5100583;28;20106;-62
2021/10/27 20:55:46;;;;;;;3.67;2.85;;;;;;;;;;5089697;28;20039;-62
2021/10/27 20:58:33;;;;;;;3.92;3.28;;;;;;;;;;5103009;28;20038;-61
2021/10/27 21:01:09;;;;;;;3.40;2.80;;;;;;;;;;5100565;28;20084;-62